sensor_id;sensor_type;location;lat;lon;timestamp;temperature;humidity
11491;DHT22;5802;52.832;4.758;2023-02-08T00:01:06;22.00;41.90
11491;DHT22;5802;52.832;4.758;2023-02-08T00:03:33;22.00;41.90
11491;DHT22;5802;52.832;4.758;2023-02-08T00:05:59;22.00;41.90
11491;DHT22;5802;52.832;4.758;2023-02-08T00:08:26;22.00;41.90
11491;DHT22;5802;52.832;4.758;2023-02-08T00:10:53;22.00;41.90
11491;DHT22;5802;52.832;4.758;2023-02-08T00:13:21;22.00;41.90
11491;DHT22;5802;52.832;4.758;2023-02-08T00:15:47;22.00;41.80
11491;DHT22;5802;52.832;4.758;2023-02-08T00:18:14;22.00;41.90
11491;DHT22;5802;52.832;4.758;2023-02-08T00:20:42;22.00;41.80
11491;DHT22;5802;52.832;4.758;2023-02-08T00:23:10;22.00;41.80
11491;DHT22;5802;52.832;4.758;2023-02-08T00:25:40;22.00;41.80
11491;DHT22;5802;52.832;4.758;2023-02-08T00:28:11;22.00;41.70
11491;DHT22;5802;52.832;4.758;2023-02-08T00:30:40;22.00;41.80
11491;DHT22;5802;52.832;4.758;2023-02-08T00:33:07;22.00;41.80
11491;DHT22;5802;52.832;4.758;2023-02-08T00:35:33;22.00;41.80
11491;DHT22;5802;52.832;4.758;2023-02-08T00:38:00;22.00;41.70
11491;DHT22;5802;52.832;4.758;2023-02-08T00:40:27;22.00;41.70
11491;DHT22;5802;52.832;4.758;2023-02-08T00:42:54;22.00;41.70
11491;DHT22;5802;52.832;4.758;2023-02-08T00:45:20;22.00;41.60
11491;DHT22;5802;52.832;4.758;2023-02-08T00:47:49;22.00;41.60
11491;DHT22;5802;52.832;4.758;2023-02-08T00:50:16;22.00;41.60
11491;DHT22;5802;52.832;4.758;2023-02-08T00:52:42;22.00;41.50
11491;DHT22;5802;52.832;4.758;2023-02-08T00:55:09;22.00;41.60
11491;DHT22;5802;52.832;4.758;2023-02-08T00:57:36;22.00;41.60
11491;DHT22;5802;52.832;4.758;2023-02-08T01:00:04;22.00;41.50
11491;DHT22;5802;52.832;4.758;2023-02-08T01:02:31;22.00;41.50
11491;DHT22;5802;52.832;4.758;2023-02-08T01:04:59;22.00;41.50
11491;DHT22;5802;52.832;4.758;2023-02-08T01:07:26;22.00;41.50
11491;DHT22;5802;52.832;4.758;2023-02-08T01:09:53;22.00;41.50
11491;DHT22;5802;52.832;4.758;2023-02-08T01:12:19;22.00;41.50
11491;DHT22;5802;52.832;4.758;2023-02-08T01:14:46;22.00;41.40
11491;DHT22;5802;52.832;4.758;2023-02-08T01:17:13;22.00;41.40
11491;DHT22;5802;52.832;4.758;2023-02-08T01:19:39;22.00;41.40
11491;DHT22;5802;52.832;4.758;2023-02-08T01:22:07;22.00;41.30
11491;DHT22;5802;52.832;4.758;2023-02-08T01:24:34;22.00;41.30
11491;DHT22;5802;52.832;4.758;2023-02-08T01:27:01;22.00;41.20
11491;DHT22;5802;52.832;4.758;2023-02-08T01:29:27;22.00;41.20
11491;DHT22;5802;52.832;4.758;2023-02-08T01:31:54;22.00;41.30
11491;DHT22;5802;52.832;4.758;2023-02-08T01:34:21;22.00;41.20
11491;DHT22;5802;52.832;4.758;2023-02-08T01:36:48;22.00;41.20
11491;DHT22;5802;52.832;4.758;2023-02-08T01:39:16;22.00;41.20
11491;DHT22;5802;52.832;4.758;2023-02-08T01:41:43;22.00;41.20
11491;DHT22;5802;52.832;4.758;2023-02-08T01:47:15;22.00;41.20
11491;DHT22;5802;52.832;4.758;2023-02-08T01:49:41;22.00;41.20
11491;DHT22;5802;52.832;4.758;2023-02-08T01:52:11;22.00;41.20
11491;DHT22;5802;52.832;4.758;2023-02-08T01:54:43;22.00;41.20
11491;DHT22;5802;52.832;4.758;2023-02-08T01:57:11;22.00;41.10
11491;DHT22;5802;52.832;4.758;2023-02-08T01:59:41;22.00;41.10
11491;DHT22;5802;52.832;4.758;2023-02-08T02:02:14;22.00;41.10
11491;DHT22;5802;52.832;4.758;2023-02-08T02:04:41;22.00;41.10
11491;DHT22;5802;52.832;4.758;2023-02-08T02:07:09;22.10;41.10
11491;DHT22;5802;52.832;4.758;2023-02-08T02:09:41;22.00;41.00
11491;DHT22;5802;52.832;4.758;2023-02-08T02:12:09;22.00;41.00
11491;DHT22;5802;52.832;4.758;2023-02-08T02:14:38;22.10;41.00
11491;DHT22;5802;52.832;4.758;2023-02-08T02:17:05;22.00;41.00
11491;DHT22;5802;52.832;4.758;2023-02-08T02:19:39;22.00;40.90
11491;DHT22;5802;52.832;4.758;2023-02-08T02:22:24;22.00;40.90
11491;DHT22;5802;52.832;4.758;2023-02-08T02:31:43;22.00;40.90
11491;DHT22;5802;52.832;4.758;2023-02-08T02:34:18;22.00;40.90
11491;DHT22;5802;52.832;4.758;2023-02-08T02:36:52;22.00;41.00
11491;DHT22;5802;52.832;4.758;2023-02-08T02:39:28;22.00;40.90
11491;DHT22;5802;52.832;4.758;2023-02-08T02:42:05;22.00;40.90
11491;DHT22;5802;52.832;4.758;2023-02-08T02:45:01;22.00;40.90
11491;DHT22;5802;52.832;4.758;2023-02-08T02:47:37;22.00;40.90
11491;DHT22;5802;52.832;4.758;2023-02-08T02:50:11;22.00;40.80
11491;DHT22;5802;52.832;4.758;2023-02-08T02:52:44;22.10;40.90
11491;DHT22;5802;52.832;4.758;2023-02-08T02:55:15;22.00;40.70
11491;DHT22;5802;52.832;4.758;2023-02-08T02:57:46;22.00;40.80
11491;DHT22;5802;52.832;4.758;2023-02-08T03:00:20;22.00;40.70
11491;DHT22;5802;52.832;4.758;2023-02-08T03:02:49;22.10;40.80
11491;DHT22;5802;52.832;4.758;2023-02-08T03:05:17;22.10;40.80
11491;DHT22;5802;52.832;4.758;2023-02-08T03:07:59;22.10;40.70
11491;DHT22;5802;52.832;4.758;2023-02-08T03:10:43;22.10;40.70
11491;DHT22;5802;52.832;4.758;2023-02-08T03:13:20;22.10;40.60
11491;DHT22;5802;52.832;4.758;2023-02-08T03:16:00;22.10;40.60
11491;DHT22;5802;52.832;4.758;2023-02-08T03:18:35;22.00;40.60
11491;DHT22;5802;52.832;4.758;2023-02-08T03:21:09;22.10;40.70
11491;DHT22;5802;52.832;4.758;2023-02-08T03:23:40;22.10;40.60
11491;DHT22;5802;52.832;4.758;2023-02-08T03:26:15;22.10;40.60
11491;DHT22;5802;52.832;4.758;2023-02-08T03:28:49;22.10;40.50
11491;DHT22;5802;52.832;4.758;2023-02-08T03:31:28;22.10;40.50
11491;DHT22;5802;52.832;4.758;2023-02-08T03:34:01;22.10;40.50
11491;DHT22;5802;52.832;4.758;2023-02-08T03:36:33;22.10;40.50
11491;DHT22;5802;52.832;4.758;2023-02-08T03:39:05;22.10;40.50
11491;DHT22;5802;52.832;4.758;2023-02-08T03:41:37;22.10;40.40
11491;DHT22;5802;52.832;4.758;2023-02-08T03:44:08;22.10;40.40
11491;DHT22;5802;52.832;4.758;2023-02-08T03:46:38;22.10;40.40
11491;DHT22;5802;52.832;4.758;2023-02-08T03:49:13;22.10;40.30
11491;DHT22;5802;52.832;4.758;2023-02-08T03:51:42;22.10;40.30
11491;DHT22;5802;52.832;4.758;2023-02-08T03:54:13;22.10;40.30
11491;DHT22;5802;52.832;4.758;2023-02-08T03:56:44;22.10;40.30
11491;DHT22;5802;52.832;4.758;2023-02-08T03:59:16;22.10;40.30
11491;DHT22;5802;52.832;4.758;2023-02-08T04:01:49;22.10;40.30
11491;DHT22;5802;52.832;4.758;2023-02-08T04:04:18;22.10;40.30
11491;DHT22;5802;52.832;4.758;2023-02-08T04:06:46;22.10;40.30
11491;DHT22;5802;52.832;4.758;2023-02-08T04:09:13;22.10;40.30
11491;DHT22;5802;52.832;4.758;2023-02-08T04:11:39;22.10;40.20
11491;DHT22;5802;52.832;4.758;2023-02-08T04:14:06;22.10;40.20
11491;DHT22;5802;52.832;4.758;2023-02-08T04:16:33;22.10;40.20
11491;DHT22;5802;52.832;4.758;2023-02-08T04:18:59;22.10;40.20
11491;DHT22;5802;52.832;4.758;2023-02-08T04:21:27;22.10;40.20
11491;DHT22;5802;52.832;4.758;2023-02-08T04:23:54;22.10;40.10
11491;DHT22;5802;52.832;4.758;2023-02-08T04:26:21;22.10;40.10
11491;DHT22;5802;52.832;4.758;2023-02-08T04:28:48;22.10;40.10
11491;DHT22;5802;52.832;4.758;2023-02-08T04:31:14;22.10;40.10
11491;DHT22;5802;52.832;4.758;2023-02-08T04:33:41;22.10;40.10
11491;DHT22;5802;52.832;4.758;2023-02-08T04:36:08;22.10;40.10
11491;DHT22;5802;52.832;4.758;2023-02-08T04:38:36;22.10;40.00
11491;DHT22;5802;52.832;4.758;2023-02-08T04:41:03;22.10;40.00
11491;DHT22;5802;52.832;4.758;2023-02-08T04:43:29;22.10;40.00
11491;DHT22;5802;52.832;4.758;2023-02-08T04:45:56;22.10;40.00
11491;DHT22;5802;52.832;4.758;2023-02-08T04:48:23;22.10;40.00
11491;DHT22;5802;52.832;4.758;2023-02-08T04:50:54;22.10;39.90
11491;DHT22;5802;52.832;4.758;2023-02-08T04:53:20;22.10;39.90
11491;DHT22;5802;52.832;4.758;2023-02-08T04:55:48;22.10;39.90
11491;DHT22;5802;52.832;4.758;2023-02-08T04:58:15;22.10;39.90
11491;DHT22;5802;52.832;4.758;2023-02-08T05:00:42;22.10;39.90
11491;DHT22;5802;52.832;4.758;2023-02-08T05:03:09;22.10;40.00
11491;DHT22;5802;52.832;4.758;2023-02-08T05:05:36;22.10;39.90
11491;DHT22;5802;52.832;4.758;2023-02-08T05:08:03;22.10;39.70
11491;DHT22;5802;52.832;4.758;2023-02-08T05:10:30;22.10;39.70
11491;DHT22;5802;52.832;4.758;2023-02-08T05:12:58;22.10;39.70
11491;DHT22;5802;52.832;4.758;2023-02-08T05:15:25;22.20;39.80
11491;DHT22;5802;52.832;4.758;2023-02-08T05:17:52;22.10;39.80
11491;DHT22;5802;52.832;4.758;2023-02-08T05:20:19;22.10;39.90
11491;DHT22;5802;52.832;4.758;2023-02-08T05:22:46;22.10;39.80
11491;DHT22;5802;52.832;4.758;2023-02-08T05:25:12;22.10;39.80
11491;DHT22;5802;52.832;4.758;2023-02-08T05:27:39;22.20;39.80
11491;DHT22;5802;52.832;4.758;2023-02-08T05:30:08;22.20;39.80
11491;DHT22;5802;52.832;4.758;2023-02-08T05:32:35;22.20;39.80
11491;DHT22;5802;52.832;4.758;2023-02-08T05:35:02;22.20;40.50
11491;DHT22;5802;52.832;4.758;2023-02-08T05:37:28;22.20;39.90
11491;DHT22;5802;52.832;4.758;2023-02-08T05:39:55;22.20;39.80
11491;DHT22;5802;52.832;4.758;2023-02-08T05:42:22;22.20;39.80
11491;DHT22;5802;52.832;4.758;2023-02-08T05:44:48;22.20;39.90
11491;DHT22;5802;52.832;4.758;2023-02-08T05:47:16;22.20;39.90
11491;DHT22;5802;52.832;4.758;2023-02-08T05:49:43;22.20;39.80
11491;DHT22;5802;52.832;4.758;2023-02-08T05:52:10;22.20;39.80
11491;DHT22;5802;52.832;4.758;2023-02-08T05:54:37;22.20;39.80
11491;DHT22;5802;52.832;4.758;2023-02-08T05:57:03;22.20;39.80
11491;DHT22;5802;52.832;4.758;2023-02-08T05:59:30;22.20;39.80
11491;DHT22;5802;52.832;4.758;2023-02-08T06:01:56;22.20;39.80
11491;DHT22;5802;52.832;4.758;2023-02-08T06:04:24;22.20;39.70
11491;DHT22;5802;52.832;4.758;2023-02-08T06:06:51;22.20;39.70
11491;DHT22;5802;52.832;4.758;2023-02-08T06:09:18;22.20;39.70
11491;DHT22;5802;52.832;4.758;2023-02-08T06:11:44;22.20;39.70
11491;DHT22;5802;52.832;4.758;2023-02-08T06:14:11;22.20;39.70
11491;DHT22;5802;52.832;4.758;2023-02-08T06:16:38;22.20;39.60
11491;DHT22;5802;52.832;4.758;2023-02-08T06:19:05;22.20;39.60
11491;DHT22;5802;52.832;4.758;2023-02-08T06:21:33;22.20;39.70
11491;DHT22;5802;52.832;4.758;2023-02-08T06:24:00;22.20;39.60
11491;DHT22;5802;52.832;4.758;2023-02-08T06:26:28;22.20;39.60
11491;DHT22;5802;52.832;4.758;2023-02-08T06:28:55;22.20;39.60
11491;DHT22;5802;52.832;4.758;2023-02-08T06:31:21;22.20;39.60
11491;DHT22;5802;52.832;4.758;2023-02-08T06:33:48;22.20;39.60
11491;DHT22;5802;52.832;4.758;2023-02-08T06:36:15;22.20;39.50
11491;DHT22;5802;52.832;4.758;2023-02-08T06:38:43;22.20;39.50
11491;DHT22;5802;52.832;4.758;2023-02-08T06:41:09;22.20;39.50
11491;DHT22;5802;52.832;4.758;2023-02-08T06:43:36;22.20;39.50
11491;DHT22;5802;52.832;4.758;2023-02-08T06:46:03;22.20;39.40
11491;DHT22;5802;52.832;4.758;2023-02-08T06:48:33;22.20;39.50
11491;DHT22;5802;52.832;4.758;2023-02-08T06:50:59;22.20;39.30
11491;DHT22;5802;52.832;4.758;2023-02-08T06:53:26;22.20;39.20
11491;DHT22;5802;52.832;4.758;2023-02-08T06:55:54;22.20;39.30
11491;DHT22;5802;52.832;4.758;2023-02-08T06:58:21;22.20;39.30
11491;DHT22;5802;52.832;4.758;2023-02-08T07:00:50;22.20;39.50
11491;DHT22;5802;52.832;4.758;2023-02-08T07:03:17;22.20;39.50
11491;DHT22;5802;52.832;4.758;2023-02-08T07:05:44;22.20;39.50
11491;DHT22;5802;52.832;4.758;2023-02-08T07:08:10;22.20;39.50
11491;DHT22;5802;52.832;4.758;2023-02-08T07:10:37;22.20;39.60
11491;DHT22;5802;52.832;4.758;2023-02-08T07:13:08;22.20;39.60
11491;DHT22;5802;52.832;4.758;2023-02-08T07:15:35;22.20;39.60
11491;DHT22;5802;52.832;4.758;2023-02-08T07:18:01;22.20;39.60
11491;DHT22;5802;52.832;4.758;2023-02-08T07:20:28;22.20;39.60
11491;DHT22;5802;52.832;4.758;2023-02-08T07:22:55;22.20;39.60
11491;DHT22;5802;52.832;4.758;2023-02-08T07:25:22;22.20;39.60
11491;DHT22;5802;52.832;4.758;2023-02-08T07:27:48;22.20;39.60
11491;DHT22;5802;52.832;4.758;2023-02-08T07:30:16;22.20;39.60
11491;DHT22;5802;52.832;4.758;2023-02-08T07:32:43;22.20;39.60
11491;DHT22;5802;52.832;4.758;2023-02-08T07:35:10;22.20;39.60
11491;DHT22;5802;52.832;4.758;2023-02-08T07:37:36;22.20;39.50
11491;DHT22;5802;52.832;4.758;2023-02-08T07:40:04;22.20;39.50
11491;DHT22;5802;52.832;4.758;2023-02-08T07:42:32;22.20;39.40
11491;DHT22;5802;52.832;4.758;2023-02-08T07:44:59;22.20;39.40
11491;DHT22;5802;52.832;4.758;2023-02-08T07:47:27;22.20;39.50
11491;DHT22;5802;52.832;4.758;2023-02-08T07:49:57;22.20;39.50
11491;DHT22;5802;52.832;4.758;2023-02-08T07:52:23;22.20;39.50
11491;DHT22;5802;52.832;4.758;2023-02-08T07:54:50;22.20;39.50
11491;DHT22;5802;52.832;4.758;2023-02-08T07:57:17;22.20;39.50
11491;DHT22;5802;52.832;4.758;2023-02-08T07:59:45;22.20;39.50
11491;DHT22;5802;52.832;4.758;2023-02-08T08:02:13;22.20;39.40
11491;DHT22;5802;52.832;4.758;2023-02-08T08:04:42;22.20;39.50
11491;DHT22;5802;52.832;4.758;2023-02-08T08:07:08;22.20;39.50
11491;DHT22;5802;52.832;4.758;2023-02-08T08:09:35;22.20;39.40
11491;DHT22;5802;52.832;4.758;2023-02-08T08:12:02;22.20;39.40
11491;DHT22;5802;52.832;4.758;2023-02-08T08:14:30;22.30;39.50
11491;DHT22;5802;52.832;4.758;2023-02-08T08:16:57;22.20;39.40
11491;DHT22;5802;52.832;4.758;2023-02-08T08:19:24;22.30;39.50
11491;DHT22;5802;52.832;4.758;2023-02-08T08:21:54;22.30;39.40
11491;DHT22;5802;52.832;4.758;2023-02-08T08:24:20;22.30;39.40
11491;DHT22;5802;52.832;4.758;2023-02-08T08:26:47;22.30;39.40
11491;DHT22;5802;52.832;4.758;2023-02-08T08:29:14;22.30;39.40
11491;DHT22;5802;52.832;4.758;2023-02-08T08:31:42;22.30;39.40
11491;DHT22;5802;52.832;4.758;2023-02-08T08:34:09;22.30;39.40
11491;DHT22;5802;52.832;4.758;2023-02-08T08:36:35;22.30;39.40
11491;DHT22;5802;52.832;4.758;2023-02-08T08:39:04;22.30;39.40
11491;DHT22;5802;52.832;4.758;2023-02-08T08:41:30;22.30;39.40
11491;DHT22;5802;52.832;4.758;2023-02-08T08:43:57;22.30;39.30
11491;DHT22;5802;52.832;4.758;2023-02-08T08:46:24;22.40;39.40
11491;DHT22;5802;52.832;4.758;2023-02-08T08:48:51;22.40;39.40
11491;DHT22;5802;52.832;4.758;2023-02-08T08:51:18;22.40;39.40
11491;DHT22;5802;52.832;4.758;2023-02-08T08:53:45;22.40;39.40
11491;DHT22;5802;52.832;4.758;2023-02-08T08:56:13;22.40;39.40
11491;DHT22;5802;52.832;4.758;2023-02-08T08:58:39;22.40;39.30
11491;DHT22;5802;52.832;4.758;2023-02-08T09:01:08;22.50;39.30
11491;DHT22;5802;52.832;4.758;2023-02-08T09:03:34;22.50;39.40
11491;DHT22;5802;52.832;4.758;2023-02-08T09:06:01;22.50;39.10
11491;DHT22;5802;52.832;4.758;2023-02-08T09:08:28;22.50;39.00
11491;DHT22;5802;52.832;4.758;2023-02-08T09:10:54;22.50;38.80
11491;DHT22;5802;52.832;4.758;2023-02-08T09:13:22;22.50;39.00
11491;DHT22;5802;52.832;4.758;2023-02-08T09:15:49;22.50;39.00
11491;DHT22;5802;52.832;4.758;2023-02-08T09:18:16;22.60;39.10
11491;DHT22;5802;52.832;4.758;2023-02-08T09:20:43;22.60;39.10
11491;DHT22;5802;52.832;4.758;2023-02-08T09:23:10;22.60;39.00
11491;DHT22;5802;52.832;4.758;2023-02-08T09:25:37;22.60;39.10
11491;DHT22;5802;52.832;4.758;2023-02-08T09:28:03;22.70;39.10
11491;DHT22;5802;52.832;4.758;2023-02-08T09:30:35;22.70;39.10
11491;DHT22;5802;52.832;4.758;2023-02-08T09:33:01;22.70;39.10
11491;DHT22;5802;52.832;4.758;2023-02-08T09:35:28;22.70;39.10
11491;DHT22;5802;52.832;4.758;2023-02-08T09:37:55;22.70;39.10
11491;DHT22;5802;52.832;4.758;2023-02-08T09:40:30;22.80;39.10
11491;DHT22;5802;52.832;4.758;2023-02-08T09:43:05;22.80;39.20
11491;DHT22;5802;52.832;4.758;2023-02-08T09:45:41;22.80;39.20
11491;DHT22;5802;52.832;4.758;2023-02-08T09:48:17;22.80;39.20
11491;DHT22;5802;52.832;4.758;2023-02-08T09:50:49;22.80;39.20
11491;DHT22;5802;52.832;4.758;2023-02-08T09:53:21;22.80;39.20
11491;DHT22;5802;52.832;4.758;2023-02-08T09:55:51;22.80;39.20
11491;DHT22;5802;52.832;4.758;2023-02-08T09:58:23;22.80;39.20
11491;DHT22;5802;52.832;4.758;2023-02-08T10:00:52;22.90;39.20
11491;DHT22;5802;52.832;4.758;2023-02-08T10:03:26;22.90;39.20
11491;DHT22;5802;52.832;4.758;2023-02-08T10:05:54;22.90;39.20
11491;DHT22;5802;52.832;4.758;2023-02-08T10:08:21;22.90;39.10
11491;DHT22;5802;52.832;4.758;2023-02-08T10:10:53;22.90;39.10
11491;DHT22;5802;52.832;4.758;2023-02-08T10:16:36;22.90;39.20
11491;DHT22;5802;52.832;4.758;2023-02-08T10:19:13;22.90;39.30
11491;DHT22;5802;52.832;4.758;2023-02-08T10:21:55;22.90;39.60
11491;DHT22;5802;52.832;4.758;2023-02-08T10:24:40;22.90;39.70
11491;DHT22;5802;52.832;4.758;2023-02-08T10:27:13;23.00;39.80
11491;DHT22;5802;52.832;4.758;2023-02-08T10:30:02;23.00;39.70
11491;DHT22;5802;52.832;4.758;2023-02-08T10:35:28;23.00;39.60
11491;DHT22;5802;52.832;4.758;2023-02-08T10:37:58;23.00;39.50
11491;DHT22;5802;52.832;4.758;2023-02-08T10:40:36;23.00;39.50
11491;DHT22;5802;52.832;4.758;2023-02-08T10:43:18;23.00;39.40
11491;DHT22;5802;52.832;4.758;2023-02-08T10:45:51;23.00;39.40
11491;DHT22;5802;52.832;4.758;2023-02-08T10:48:28;23.00;39.30
11491;DHT22;5802;52.832;4.758;2023-02-08T10:51:00;23.00;39.30
11491;DHT22;5802;52.832;4.758;2023-02-08T10:53:27;23.00;39.30
11491;DHT22;5802;52.832;4.758;2023-02-08T10:55:53;23.10;39.30
11491;DHT22;5802;52.832;4.758;2023-02-08T10:58:25;23.10;39.30
11491;DHT22;5802;52.832;4.758;2023-02-08T11:00:53;23.10;39.10
11491;DHT22;5802;52.832;4.758;2023-02-08T11:03:25;23.10;39.00
11491;DHT22;5802;52.832;4.758;2023-02-08T11:05:53;23.10;39.00
11491;DHT22;5802;52.832;4.758;2023-02-08T11:08:21;23.10;39.00
11491;DHT22;5802;52.832;4.758;2023-02-08T11:10:57;23.10;38.80
11491;DHT22;5802;52.832;4.758;2023-02-08T11:13:30;23.10;38.70
11491;DHT22;5802;52.832;4.758;2023-02-08T11:15:59;23.10;38.70
11491;DHT22;5802;52.832;4.758;2023-02-08T11:18:30;23.20;38.70
11491;DHT22;5802;52.832;4.758;2023-02-08T11:21:02;23.20;38.70
11491;DHT22;5802;52.832;4.758;2023-02-08T11:23:32;23.20;38.60
11491;DHT22;5802;52.832;4.758;2023-02-08T11:26:14;23.20;38.60
11491;DHT22;5802;52.832;4.758;2023-02-08T11:28:42;23.20;38.70
11491;DHT22;5802;52.832;4.758;2023-02-08T11:31:16;23.20;38.70
11491;DHT22;5802;52.832;4.758;2023-02-08T11:33:59;23.20;38.90
11491;DHT22;5802;52.832;4.758;2023-02-08T11:36:26;23.20;38.90
11491;DHT22;5802;52.832;4.758;2023-02-08T11:38:53;23.20;38.90
11491;DHT22;5802;52.832;4.758;2023-02-08T11:41:21;23.20;39.00
11491;DHT22;5802;52.832;4.758;2023-02-08T11:43:57;23.20;39.00
11491;DHT22;5802;52.832;4.758;2023-02-08T11:46:26;23.30;39.10
11491;DHT22;5802;52.832;4.758;2023-02-08T11:48:54;23.30;39.10
11491;DHT22;5802;52.832;4.758;2023-02-08T11:51:29;23.30;39.20
11491;DHT22;5802;52.832;4.758;2023-02-08T11:53:57;23.30;39.20
11491;DHT22;5802;52.832;4.758;2023-02-08T11:56:26;23.30;39.20
11491;DHT22;5802;52.832;4.758;2023-02-08T11:59:02;23.30;39.50
11491;DHT22;5802;52.832;4.758;2023-02-08T12:01:32;23.30;39.30
11491;DHT22;5802;52.832;4.758;2023-02-08T12:04:01;23.30;39.30
11491;DHT22;5802;52.832;4.758;2023-02-08T12:06:55;23.30;39.30
11491;DHT22;5802;52.832;4.758;2023-02-08T12:09:57;23.30;39.40
11491;DHT22;5802;52.832;4.758;2023-02-08T12:12:34;23.30;39.40
11491;DHT22;5802;52.832;4.758;2023-02-08T12:15:10;23.30;39.50
11491;DHT22;5802;52.832;4.758;2023-02-08T12:17:50;23.30;39.50
11491;DHT22;5802;52.832;4.758;2023-02-08T12:20:32;23.30;39.50
11491;DHT22;5802;52.832;4.758;2023-02-08T12:23:18;23.30;39.70
11491;DHT22;5802;52.832;4.758;2023-02-08T12:25:50;23.30;39.70
11491;DHT22;5802;52.832;4.758;2023-02-08T12:28:24;23.30;39.70
11491;DHT22;5802;52.832;4.758;2023-02-08T12:31:00;23.30;39.80
11491;DHT22;5802;52.832;4.758;2023-02-08T12:33:40;23.40;39.90
11491;DHT22;5802;52.832;4.758;2023-02-08T12:36:21;23.30;39.80
11491;DHT22;5802;52.832;4.758;2023-02-08T12:39:14;23.40;39.90
11491;DHT22;5802;52.832;4.758;2023-02-08T12:42:17;23.30;39.90
11491;DHT22;5802;52.832;4.758;2023-02-08T12:45:05;23.40;39.90
11491;DHT22;5802;52.832;4.758;2023-02-08T12:47:44;23.40;39.90
11491;DHT22;5802;52.832;4.758;2023-02-08T12:50:17;23.40;39.90
11491;DHT22;5802;52.832;4.758;2023-02-08T12:52:48;23.40;39.90
11491;DHT22;5802;52.832;4.758;2023-02-08T12:55:21;23.40;39.90
11491;DHT22;5802;52.832;4.758;2023-02-08T12:57:52;23.40;39.90
11491;DHT22;5802;52.832;4.758;2023-02-08T13:00:22;23.40;39.90
11491;DHT22;5802;52.832;4.758;2023-02-08T13:02:55;23.40;39.90
11491;DHT22;5802;52.832;4.758;2023-02-08T13:05:27;23.40;39.90
11491;DHT22;5802;52.832;4.758;2023-02-08T13:08:02;23.40;39.80
11491;DHT22;5802;52.832;4.758;2023-02-08T13:10:38;23.40;39.80
11491;DHT22;5802;52.832;4.758;2023-02-08T13:13:11;23.40;39.70
11491;DHT22;5802;52.832;4.758;2023-02-08T13:15:45;23.40;39.70
11491;DHT22;5802;52.832;4.758;2023-02-08T13:18:17;23.40;39.70
11491;DHT22;5802;52.832;4.758;2023-02-08T13:20:48;23.40;39.70
11491;DHT22;5802;52.832;4.758;2023-02-08T13:23:22;23.40;39.50
11491;DHT22;5802;52.832;4.758;2023-02-08T13:25:57;23.40;39.60
11491;DHT22;5802;52.832;4.758;2023-02-08T13:28:31;23.40;39.60
11491;DHT22;5802;52.832;4.758;2023-02-08T13:31:01;23.40;39.50
11491;DHT22;5802;52.832;4.758;2023-02-08T13:33:33;23.40;39.50
11491;DHT22;5802;52.832;4.758;2023-02-08T13:36:01;23.50;39.50
11491;DHT22;5802;52.832;4.758;2023-02-08T13:38:31;23.50;39.50
11491;DHT22;5802;52.832;4.758;2023-02-08T13:41:12;23.50;39.40
11491;DHT22;5802;52.832;4.758;2023-02-08T13:43:44;23.50;39.30
11491;DHT22;5802;52.832;4.758;2023-02-08T13:46:12;23.50;39.30
11491;DHT22;5802;52.832;4.758;2023-02-08T13:48:44;23.50;39.20
11491;DHT22;5802;52.832;4.758;2023-02-08T13:54:12;23.50;38.90
11491;DHT22;5802;52.832;4.758;2023-02-08T13:56:42;23.50;39.00
11491;DHT22;5802;52.832;4.758;2023-02-08T13:59:26;23.50;39.00
11491;DHT22;5802;52.832;4.758;2023-02-08T14:02:23;23.50;39.00
11491;DHT22;5802;52.832;4.758;2023-02-08T14:04:52;23.50;39.10
11491;DHT22;5802;52.832;4.758;2023-02-08T14:07:26;23.50;39.10
11491;DHT22;5802;52.832;4.758;2023-02-08T14:10:26;23.50;39.20
11491;DHT22;5802;52.832;4.758;2023-02-08T14:13:04;23.50;39.20
11491;DHT22;5802;52.832;4.758;2023-02-08T14:15:36;23.50;39.20
11491;DHT22;5802;52.832;4.758;2023-02-08T14:18:04;23.50;39.20
11491;DHT22;5802;52.832;4.758;2023-02-08T14:20:56;23.50;39.20
11491;DHT22;5802;52.832;4.758;2023-02-08T14:23:26;23.40;39.10
11491;DHT22;5802;52.832;4.758;2023-02-08T14:25:56;23.50;39.20
11491;DHT22;5802;52.832;4.758;2023-02-08T14:28:28;23.50;39.20
11491;DHT22;5802;52.832;4.758;2023-02-08T14:30:57;23.50;39.20
11491;DHT22;5802;52.832;4.758;2023-02-08T14:33:27;23.40;39.20
11491;DHT22;5802;52.832;4.758;2023-02-08T14:35:57;23.50;39.30
11491;DHT22;5802;52.832;4.758;2023-02-08T14:38:35;23.50;39.30
11491;DHT22;5802;52.832;4.758;2023-02-08T14:41:43;23.40;39.30
11491;DHT22;5802;52.832;4.758;2023-02-08T14:50:40;23.40;39.30
11491;DHT22;5802;52.832;4.758;2023-02-08T14:53:27;23.40;39.40
11491;DHT22;5802;52.832;4.758;2023-02-08T14:56:04;23.40;39.40
11491;DHT22;5802;52.832;4.758;2023-02-08T14:58:34;23.30;39.40
11491;DHT22;5802;52.832;4.758;2023-02-08T15:01:13;23.30;39.40
11491;DHT22;5802;52.832;4.758;2023-02-08T15:03:41;23.30;40.00
11491;DHT22;5802;52.832;4.758;2023-02-08T15:06:38;23.30;39.40
11491;DHT22;5802;52.832;4.758;2023-02-08T15:09:15;23.30;39.40
11491;DHT22;5802;52.832;4.758;2023-02-08T15:11:48;23.30;39.40
11491;DHT22;5802;52.832;4.758;2023-02-08T15:14:18;23.30;39.50
11491;DHT22;5802;52.832;4.758;2023-02-08T15:16:46;23.30;39.50
11491;DHT22;5802;52.832;4.758;2023-02-08T15:19:20;23.20;39.50
11491;DHT22;5802;52.832;4.758;2023-02-08T15:21:49;23.20;39.40
11491;DHT22;5802;52.832;4.758;2023-02-08T15:24:18;23.20;39.50
11491;DHT22;5802;52.832;4.758;2023-02-08T15:26:48;23.20;39.50
11491;DHT22;5802;52.832;4.758;2023-02-08T15:29:20;23.20;39.60
11491;DHT22;5802;52.832;4.758;2023-02-08T15:31:47;23.20;39.60
11491;DHT22;5802;52.832;4.758;2023-02-08T15:34:15;23.20;39.60
11491;DHT22;5802;52.832;4.758;2023-02-08T15:36:46;23.20;39.50
11491;DHT22;5802;52.832;4.758;2023-02-08T15:39:24;23.20;39.60
11491;DHT22;5802;52.832;4.758;2023-02-08T15:41:55;23.20;39.60
11491;DHT22;5802;52.832;4.758;2023-02-08T15:44:24;23.20;39.80
11491;DHT22;5802;52.832;4.758;2023-02-08T15:46:52;23.20;39.80
11491;DHT22;5802;52.832;4.758;2023-02-08T15:49:23;23.20;39.80
11491;DHT22;5802;52.832;4.758;2023-02-08T15:51:53;23.20;39.80
11491;DHT22;5802;52.832;4.758;2023-02-08T15:54:23;23.20;39.80
11491;DHT22;5802;52.832;4.758;2023-02-08T15:56:53;23.20;39.80
11491;DHT22;5802;52.832;4.758;2023-02-08T15:59:23;23.20;39.80
11491;DHT22;5802;52.832;4.758;2023-02-08T16:01:51;23.10;40.40
11491;DHT22;5802;52.832;4.758;2023-02-08T16:04:19;23.10;39.70
11491;DHT22;5802;52.832;4.758;2023-02-08T16:06:49;23.10;39.70
11491;DHT22;5802;52.832;4.758;2023-02-08T16:09:18;23.10;39.70
11491;DHT22;5802;52.832;4.758;2023-02-08T16:11:48;23.10;39.70
11491;DHT22;5802;52.832;4.758;2023-02-08T16:14:17;23.10;40.50
11491;DHT22;5802;52.832;4.758;2023-02-08T16:16:46;23.10;39.80
11491;DHT22;5802;52.832;4.758;2023-02-08T16:19:33;23.10;39.80
11491;DHT22;5802;52.832;4.758;2023-02-08T16:22:20;23.10;39.70
11491;DHT22;5802;52.832;4.758;2023-02-08T16:24:50;23.10;39.80
11491;DHT22;5802;52.832;4.758;2023-02-08T16:27:23;23.10;39.80
11491;DHT22;5802;52.832;4.758;2023-02-08T16:29:51;23.00;39.70
11491;DHT22;5802;52.832;4.758;2023-02-08T16:32:23;23.00;39.70